createdAt,value
2022-09-27T00:04:02.272Z,98451
2022-09-27T00:09:52.858Z,98445
2022-09-27T00:15:43.788Z,98455
2022-09-27T00:21:35.992Z,98461
2022-09-27T00:27:27.730Z,98479
2022-09-27T00:33:18.597Z,98489
2022-09-27T00:39:09.829Z,98498
2022-09-27T00:45:02.680Z,98496
2022-09-27T00:50:53.563Z,98503
2022-09-27T00:56:46.261Z,98516
2022-09-27T01:02:37.913Z,98518
2022-09-27T01:08:29.025Z,98510
2022-09-27T01:14:22.639Z,98527
2022-09-27T01:20:12.722Z,98530
2022-09-27T01:26:02.610Z,98530
2022-09-27T01:31:54.149Z,98535
2022-09-27T01:37:42.936Z,98531
2022-09-27T01:43:32.439Z,98532
2022-09-27T01:49:21.727Z,98533
2022-09-27T01:55:11.309Z,98535
2022-09-27T02:01:01.297Z,98533
2022-09-27T02:06:52.203Z,98531
2022-09-27T02:12:43.444Z,98531
2022-09-27T02:18:33.222Z,98536
2022-09-27T02:24:27.934Z,98532
2022-09-27T02:30:19.718Z,98538
2022-09-27T02:36:11.020Z,98540
2022-09-27T02:42:03.284Z,98537
2022-09-27T02:47:54.348Z,98544
2022-09-27T02:53:47.674Z,98556
2022-09-27T02:59:38.033Z,98563
2022-09-27T03:05:28.917Z,98564
2022-09-27T03:11:20.608Z,98568
2022-09-27T03:17:12.243Z,98565
2022-09-27T03:23:05.160Z,98575
2022-09-27T03:28:57.101Z,98584
2022-09-27T03:34:48.210Z,98594
2022-09-27T03:40:40.605Z,98600
2022-09-27T03:46:32.730Z,98596
2022-09-27T03:52:24.554Z,98601
2022-09-27T03:58:15.349Z,98603
2022-09-27T04:04:13.415Z,98613
2022-09-27T04:10:03.903Z,98616
2022-09-27T04:15:56.395Z,98613
2022-09-27T04:21:45.660Z,98613
2022-09-27T04:27:36.200Z,98616
2022-09-27T04:33:26.899Z,98619
2022-09-27T04:39:17.971Z,98617
2022-09-27T04:45:08.175Z,98624
2022-09-27T04:50:58.808Z,98626
2022-09-27T04:56:49.320Z,98633
2022-09-27T05:02:39.709Z,98637
2022-09-27T05:08:30.578Z,98643
2022-09-27T05:14:22.270Z,98649
2022-09-27T05:20:16.613Z,98659
2022-09-27T05:26:15.617Z,98663
2022-09-27T05:32:06.897Z,98672
2022-09-27T05:37:57.971Z,98671
2022-09-27T05:43:49.114Z,98685
2022-09-27T05:49:41.327Z,98696
2022-09-27T05:55:32.738Z,98697
2022-09-27T06:01:26.489Z,98700
2022-09-27T06:07:17.854Z,98704
2022-09-27T06:13:09.978Z,98707
2022-09-27T06:19:00.902Z,98707
2022-09-27T06:24:51.782Z,98714
2022-09-27T06:30:43.156Z,98725
2022-09-27T06:36:38.143Z,98728
2022-09-27T06:42:29.108Z,98726
2022-09-27T06:48:20.455Z,98723
2022-09-27T06:54:13.848Z,98728
2022-09-27T07:00:09.617Z,98736
2022-09-27T07:06:01.397Z,98747
2022-09-27T07:11:53.616Z,98754
2022-09-27T07:17:45.542Z,98771
2022-09-27T07:23:36.964Z,98771
2022-09-27T07:29:34.518Z,98771
2022-09-27T07:35:31.882Z,98772
2022-09-27T07:41:29.475Z,98768
2022-09-27T07:47:25.862Z,98764
2022-09-27T07:53:16.776Z,98773
2022-09-27T07:59:10.732Z,98780
2022-09-27T08:05:05.670Z,98798
2022-09-27T08:10:58.253Z,98802
2022-09-27T08:16:49.289Z,98802
2022-09-27T08:22:41.093Z,98813
2022-09-27T08:28:38.946Z,98812
2022-09-27T08:34:29.973Z,98807
2022-09-27T08:40:22.066Z,98812
2022-09-27T08:46:13.222Z,98814
2022-09-27T08:52:04.553Z,98820
2022-09-27T08:57:55.345Z,98823
2022-09-27T09:03:47.678Z,98820
2022-09-27T09:09:37.814Z,98817
2022-09-27T09:15:28.694Z,98816
2022-09-27T09:21:21.085Z,98820
2022-09-27T09:27:25.956Z,98817
2022-09-27T09:33:19.988Z,98810
2022-09-27T09:39:11.668Z,98807
2022-09-27T09:45:01.912Z,98793
2022-09-27T09:50:53.857Z,98797
2022-09-27T09:56:50.992Z,98787
2022-09-27T10:02:45.459Z,98784
2022-09-27T10:08:39.008Z,98785
2022-09-27T10:14:30.938Z,98781
2022-09-27T10:20:28.978Z,98780
2022-09-27T10:26:22.792Z,98778
2022-09-27T10:32:31.663Z,98787
2022-09-27T10:38:37.278Z,98781
2022-09-27T10:44:27.811Z,98781
2022-09-27T10:50:57.019Z,98772
2022-09-27T10:56:48.560Z,98776
2022-09-27T11:02:46.574Z,98773
2022-09-27T11:08:46.765Z,98762
2022-09-27T11:14:39.364Z,98777
2022-09-27T11:20:29.160Z,98774
2022-09-27T11:26:23.305Z,98766
2022-09-27T11:32:15.468Z,98770
2022-09-27T11:38:06.275Z,98766
2022-09-27T11:44:04.841Z,98757
2022-09-27T11:49:55.177Z,98763
2022-09-27T11:55:45.388Z,98770
2022-09-27T12:01:59.868Z,98771
2022-09-27T12:07:54.129Z,98780
2022-09-27T12:13:46.604Z,98774
2022-09-27T12:19:37.688Z,98781
2022-09-27T12:25:29.046Z,98776
2022-09-27T12:31:37.557Z,98770
2022-09-27T12:37:28.378Z,98773
2022-09-27T12:43:19.750Z,98773
2022-09-27T12:49:11.943Z,98753
2022-09-27T12:55:04.051Z,98759
2022-09-27T13:00:55.782Z,98754
2022-09-27T13:06:46.414Z,98749
2022-09-27T13:12:37.490Z,98742
2022-09-27T13:18:29.901Z,98734
2022-09-27T13:24:20.570Z,98737
2022-09-27T13:30:13.377Z,98736
2022-09-27T13:36:05.107Z,98746
2022-09-27T13:41:56.969Z,98755
2022-09-27T13:47:48.479Z,98749
2022-09-27T13:53:39.439Z,98746
2022-09-27T13:59:31.099Z,98763
2022-09-27T14:05:25.052Z,98770
2022-09-27T14:11:17.394Z,98780
2022-09-27T14:17:13.514Z,98787
2022-09-27T14:23:04.993Z,98795
2022-09-27T14:28:57.095Z,98789
2022-09-27T14:34:50.386Z,98788
2022-09-27T14:40:46.395Z,98786
2022-09-27T14:46:51.951Z,98790
2022-09-27T14:52:59.199Z,98793
2022-09-27T14:58:54.609Z,98802
2022-09-27T15:04:52.823Z,98804
2022-09-27T15:10:44.055Z,98799
2022-09-27T15:16:35.709Z,98804
2022-09-27T15:22:28.039Z,98796
2022-09-27T15:28:21.120Z,98805
2022-09-27T15:34:25.518Z,98802
2022-09-27T15:40:17.165Z,98802
2022-09-27T15:46:09.932Z,98820
2022-09-27T15:52:01.283Z,98834
2022-09-27T15:57:54.231Z,98844
2022-09-27T16:03:46.581Z,98844
2022-09-27T16:09:37.805Z,98845
2022-09-27T16:15:28.434Z,98820
2022-09-27T16:21:19.663Z,98809
2022-09-27T16:27:11.228Z,98816
2022-09-27T16:33:02.206Z,98818
2022-09-27T16:38:53.328Z,98811
2022-09-27T16:44:44.871Z,98813
2022-09-27T16:50:38.661Z,98816
2022-09-27T16:56:29.704Z,98803
2022-09-27T17:02:22.581Z,98790
2022-09-27T17:08:12.097Z,98779
2022-09-27T17:14:04.526Z,98771
2022-09-27T17:19:57.048Z,98770
2022-09-27T17:25:48.960Z,98766
2022-09-27T17:31:47.770Z,98765
2022-09-27T17:37:53.613Z,98765
2022-09-27T17:43:42.829Z,98772
2022-09-27T17:49:33.139Z,98772
2022-09-27T17:55:21.168Z,98765
2022-09-27T18:01:11.085Z,98757
2022-09-27T18:07:02.052Z,98759
2022-09-27T18:12:53.549Z,98748
2022-09-27T18:18:44.765Z,98742
2022-09-27T18:24:38.212Z,98739
2022-09-27T18:30:28.317Z,98734
2022-09-27T18:36:19.294Z,98724
2022-09-27T18:42:11.490Z,98725
2022-09-27T18:48:01.183Z,98722
2022-09-27T18:53:50.685Z,98703
2022-09-27T18:59:58.991Z,98704
2022-09-27T19:06:01.561Z,98699
2022-09-27T19:11:52.510Z,98696
2022-09-27T19:17:43.074Z,98697
2022-09-27T19:23:36.079Z,98690
2022-09-27T19:29:26.015Z,98675
2022-09-27T19:35:16.957Z,98680
2022-09-27T19:41:07.288Z,98679
2022-09-27T19:46:57.584Z,98675
2022-09-27T19:52:49.509Z,98674
2022-09-27T19:58:39.361Z,98662
2022-09-27T20:04:31.740Z,98657
2022-09-27T20:10:21.904Z,98656
2022-09-27T20:16:11.301Z,98655
2022-09-27T20:22:02.646Z,98645
2022-09-27T20:27:54.665Z,98629
2022-09-27T20:33:44.467Z,98616
2022-09-27T20:39:36.362Z,98609
2022-09-27T20:45:25.743Z,98600
2022-09-27T20:51:15.618Z,98602
2022-09-27T20:57:06.761Z,98589
2022-09-27T21:02:58.699Z,98586
2022-09-27T21:08:55.248Z,98584
2022-09-27T21:14:44.417Z,98574
2022-09-27T21:20:32.361Z,98574
2022-09-27T21:26:21.128Z,98577
2022-09-27T21:32:08.960Z,98577
2022-09-27T21:37:57.781Z,98571
2022-09-27T21:43:46.659Z,98569
2022-09-27T21:49:35.856Z,98560
2022-09-27T21:55:25.739Z,98560
2022-09-27T22:01:16.521Z,98560
2022-09-27T22:07:07.933Z,98558
2022-09-27T22:12:58.205Z,98558
2022-09-27T22:18:47.292Z,98545
2022-09-27T22:24:37.548Z,98535
2022-09-27T22:30:28.836Z,98531
2022-09-27T22:36:18.963Z,98522
2022-09-27T22:42:07.675Z,98506
2022-09-27T22:47:57.391Z,98505
2022-09-27T22:53:47.458Z,98500
2022-09-27T22:59:37.890Z,98491
2022-09-27T23:05:27.051Z,98482
2022-09-27T23:11:16.287Z,98486
2022-09-27T23:17:05.599Z,98483
2022-09-27T23:22:54.754Z,98475
2022-09-27T23:28:44.550Z,98476
2022-09-27T23:34:35.992Z,98468
2022-09-27T23:40:25.464Z,98464
2022-09-27T23:46:42.590Z,98458
